sensor_id;sensor_type;location;lat;lon;timestamp;pressure;altitude;pressure_sealevel;temperature;humidity
8894;BME280;4483;48.622;9.230;2023-12-04T00:02:14;98026.13;;;-5.23;91.32
8894;BME280;4483;48.622;9.230;2023-12-04T00:04:41;98051.66;;;-5.06;91.08
8894;BME280;4483;48.622;9.230;2023-12-04T00:07:08;98055.06;;;-5.03;91.14
8894;BME280;4483;48.622;9.230;2023-12-04T00:09:35;98004.16;;;-5.33;91.12
8894;BME280;4483;48.622;9.230;2023-12-04T00:12:01;98057.72;;;-4.98;90.99
8894;BME280;4483;48.622;9.230;2023-12-04T00:14:28;98034.06;;;-5.06;91.09
8894;BME280;4483;48.622;9.230;2023-12-04T00:16:56;98039.94;;;-5.06;90.56
8894;BME280;4483;48.622;9.230;2023-12-04T00:19:23;98010.22;;;-5.24;91.18
8894;BME280;4483;48.622;9.230;2023-12-04T00:21:51;98030.59;;;-5.12;91.21
8894;BME280;4483;48.622;9.230;2023-12-04T00:24:17;98026.34;;;-5.14;91.34
8894;BME280;4483;48.622;9.230;2023-12-04T00:26:44;98022.22;;;-5.12;90.92
8894;BME280;4483;48.622;9.230;2023-12-04T00:29:10;98029.81;;;-5.09;91.40
8894;BME280;4483;48.622;9.230;2023-12-04T00:31:37;98002.69;;;-5.24;90.58
8894;BME280;4483;48.622;9.230;2023-12-04T00:34:05;98008.56;;;-5.23;91.28
8894;BME280;4483;48.622;9.230;2023-12-04T00:36:32;98015.50;;;-5.13;90.63
8894;BME280;4483;48.622;9.230;2023-12-04T00:38:58;98003.69;;;-5.17;90.39
8894;BME280;4483;48.622;9.230;2023-12-04T00:41:25;97999.59;;;-5.12;90.51
8894;BME280;4483;48.622;9.230;2023-12-04T00:43:52;97998.72;;;-5.14;90.29
8894;BME280;4483;48.622;9.230;2023-12-04T00:46:18;97992.91;;;-5.13;90.52
8894;BME280;4483;48.622;9.230;2023-12-04T00:48:45;97989.53;;;-5.14;90.75
8894;BME280;4483;48.622;9.230;2023-12-04T00:51:13;97992.91;;;-5.13;90.88
8894;BME280;4483;48.622;9.230;2023-12-04T00:53:40;97990.41;;;-5.12;91.10
8894;BME280;4483;48.622;9.230;2023-12-04T00:56:07;97983.63;;;-5.16;90.28
8894;BME280;4483;48.622;9.230;2023-12-04T00:58:34;97981.94;;;-5.17;91.27
8894;BME280;4483;48.622;9.230;2023-12-04T01:01:01;97982.69;;;-5.19;90.47
8894;BME280;4483;48.622;9.230;2023-12-04T01:03:27;97982.69;;;-5.21;90.61
8894;BME280;4483;48.622;9.230;2023-12-04T01:05:58;97968.06;;;-5.37;90.69
8894;BME280;4483;48.622;9.230;2023-12-04T01:08:34;97986.78;;;-5.24;90.58
8894;BME280;4483;48.622;9.230;2023-12-04T01:11:01;97988.44;;;-5.25;90.56
8894;BME280;4483;48.622;9.230;2023-12-04T01:13:28;97987.56;;;-5.27;90.30
8894;BME280;4483;48.622;9.230;2023-12-04T01:15:54;97986.66;;;-5.29;90.41
8894;BME280;4483;48.622;9.230;2023-12-04T01:18:21;97985.78;;;-5.31;90.36
8894;BME280;4483;48.622;9.230;2023-12-04T01:20:48;97981.56;;;-5.32;90.09
8894;BME280;4483;48.622;9.230;2023-12-04T01:23:14;97984.09;;;-5.32;91.04
8894;BME280;4483;48.622;9.230;2023-12-04T01:25:42;97986.50;;;-5.35;90.64
8894;BME280;4483;48.622;9.230;2023-12-04T01:28:10;97983.06;;;-5.38;90.87
8894;BME280;4483;48.622;9.230;2023-12-04T01:30:37;97980.56;;;-5.38;90.36
8894;BME280;4483;48.622;9.230;2023-12-04T01:33:03;97971.38;;;-5.38;90.60
8894;BME280;4483;48.622;9.230;2023-12-04T01:35:30;97976.41;;;-5.38;90.77
8894;BME280;4483;48.622;9.230;2023-12-04T01:37:56;97976.47;;;-5.35;90.90
8894;BME280;4483;48.622;9.230;2023-12-04T01:40:23;97974.06;;;-5.32;90.66
8894;BME280;4483;48.622;9.230;2023-12-04T01:42:51;97962.38;;;-5.30;90.70
8894;BME280;4483;48.622;9.230;2023-12-04T01:45:18;97962.38;;;-5.30;90.61
8894;BME280;4483;48.622;9.230;2023-12-04T01:47:45;97956.47;;;-5.32;90.18
8894;BME280;4483;48.622;9.230;2023-12-04T01:50:12;97962.09;;;-5.40;90.28
8894;BME280;4483;48.622;9.230;2023-12-04T01:52:40;97944.13;;;-5.58;90.23
8894;BME280;4483;48.622;9.230;2023-12-04T01:55:08;97959.28;;;-5.54;90.23
8894;BME280;4483;48.622;9.230;2023-12-04T01:57:36;97969.28;;;-5.57;90.40
8894;BME280;4483;48.622;9.230;2023-12-04T02:00:05;97955.75;;;-5.62;90.41
8894;BME280;4483;48.622;9.230;2023-12-04T02:02:36;97963.28;;;-5.62;90.32
8894;BME280;4483;48.622;9.230;2023-12-04T02:05:04;97957.44;;;-5.62;90.24
8894;BME280;4483;48.622;9.230;2023-12-04T02:07:32;97939.69;;;-5.70;90.76
8894;BME280;4483;48.622;9.230;2023-12-04T02:09:59;97950.66;;;-5.65;90.82
8894;BME280;4483;48.622;9.230;2023-12-04T02:12:25;97951.38;;;-5.70;90.09
8894;BME280;4483;48.622;9.230;2023-12-04T02:14:52;97949.00;;;-5.64;90.69
8894;BME280;4483;48.622;9.230;2023-12-04T02:17:20;97951.44;;;-5.67;90.88
8894;BME280;4483;48.622;9.230;2023-12-04T02:19:48;97936.47;;;-5.64;90.74
8894;BME280;4483;48.622;9.230;2023-12-04T02:22:15;97948.31;;;-5.59;91.08
8894;BME280;4483;48.622;9.230;2023-12-04T02:24:44;97939.94;;;-5.58;90.57
8894;BME280;4483;48.622;9.230;2023-12-04T02:27:15;97934.13;;;-5.57;90.79
8894;BME280;4483;48.622;9.230;2023-12-04T02:29:53;97881.56;;;-5.88;90.74
8894;BME280;4483;48.622;9.230;2023-12-04T02:32:22;97920.56;;;-5.63;90.73
8894;BME280;4483;48.622;9.230;2023-12-04T02:34:50;97926.59;;;-5.57;90.45
8894;BME280;4483;48.622;9.230;2023-12-04T02:37:19;97929.88;;;-5.59;90.75
8894;BME280;4483;48.622;9.230;2023-12-04T02:39:47;97923.06;;;-5.65;90.27
8894;BME280;4483;48.622;9.230;2023-12-04T02:42:18;97904.25;;;-5.80;91.01
8894;BME280;4483;48.622;9.230;2023-12-04T02:44:44;97908.59;;;-5.75;91.14
8894;BME280;4483;48.622;9.230;2023-12-04T02:47:11;97917.19;;;-5.65;90.49
8894;BME280;4483;48.622;9.230;2023-12-04T02:49:38;97918.03;;;-5.65;90.78
8894;BME280;4483;48.622;9.230;2023-12-04T02:52:05;97907.13;;;-5.67;90.88
8894;BME280;4483;48.622;9.230;2023-12-04T02:54:31;97906.38;;;-5.63;90.62
8894;BME280;4483;48.622;9.230;2023-12-04T02:56:59;97903.88;;;-5.63;90.65
8894;BME280;4483;48.622;9.230;2023-12-04T02:59:26;97892.94;;;-5.65;90.85
8894;BME280;4483;48.622;9.230;2023-12-04T03:01:52;97881.19;;;-5.66;90.92
8894;BME280;4483;48.622;9.230;2023-12-04T03:04:19;97875.31;;;-5.68;90.69
8894;BME280;4483;48.622;9.230;2023-12-04T03:06:46;97865.28;;;-5.68;90.72
8894;BME280;4483;48.622;9.230;2023-12-04T03:09:13;97881.28;;;-5.63;90.94
8894;BME280;4483;48.622;9.230;2023-12-04T03:11:39;97876.28;;;-5.61;91.15
8894;BME280;4483;48.622;9.230;2023-12-04T03:14:07;97872.13;;;-5.61;90.90
8894;BME280;4483;48.622;9.230;2023-12-04T03:16:34;97865.50;;;-5.59;91.01
8894;BME280;4483;48.622;9.230;2023-12-04T03:19:01;97874.69;;;-5.58;91.19
8894;BME280;4483;48.622;9.230;2023-12-04T03:21:27;97859.66;;;-5.56;91.07
8894;BME280;4483;48.622;9.230;2023-12-04T03:23:54;97845.41;;;-5.59;91.37
8894;BME280;4483;48.622;9.230;2023-12-04T03:26:21;97845.47;;;-5.56;91.12
8894;BME280;4483;48.622;9.230;2023-12-04T03:28:47;97842.09;;;-5.56;91.20
8894;BME280;4483;48.622;9.230;2023-12-04T03:31:15;97828.72;;;-5.57;90.80
8894;BME280;4483;48.622;9.230;2023-12-04T03:33:42;97821.09;;;-5.61;90.82
8894;BME280;4483;48.622;9.230;2023-12-04T03:36:09;97830.22;;;-5.65;91.08
8894;BME280;4483;48.622;9.230;2023-12-04T03:38:36;97825.97;;;-5.66;90.75
8894;BME280;4483;48.622;9.230;2023-12-04T03:41:03;97821.78;;;-5.67;90.55
8894;BME280;4483;48.622;9.230;2023-12-04T03:43:29;97819.28;;;-5.67;91.30
8894;BME280;4483;48.622;9.230;2023-12-04T03:45:56;97804.16;;;-5.70;91.68
8894;BME280;4483;48.622;9.230;2023-12-04T03:48:24;97807.41;;;-5.75;91.03
8894;BME280;4483;48.622;9.230;2023-12-04T03:50:51;97808.16;;;-5.78;91.07
8894;BME280;4483;48.622;9.230;2023-12-04T03:53:17;97807.31;;;-5.78;91.25
8894;BME280;4483;48.622;9.230;2023-12-04T03:55:44;97807.31;;;-5.78;91.27
8894;BME280;4483;48.622;9.230;2023-12-04T03:58:10;97811.56;;;-5.76;90.99
8894;BME280;4483;48.622;9.230;2023-12-04T04:00:37;97805.66;;;-5.78;91.71
8894;BME280;4483;48.622;9.230;2023-12-04T04:03:06;97803.34;;;-5.69;91.78
8894;BME280;4483;48.622;9.230;2023-12-04T04:05:34;97815.88;;;-5.69;91.74
8894;BME280;4483;48.622;9.230;2023-12-04T04:08:01;97799.94;;;-5.71;91.77
8894;BME280;4483;48.622;9.230;2023-12-04T04:10:27;97805.81;;;-5.70;91.40
8894;BME280;4483;48.622;9.230;2023-12-04T04:12:54;97801.56;;;-5.73;91.48
8894;BME280;4483;48.622;9.230;2023-12-04T04:15:21;97797.41;;;-5.72;91.68
8894;BME280;4483;48.622;9.230;2023-12-04T04:17:47;97792.31;;;-5.77;92.10
8894;BME280;4483;48.622;9.230;2023-12-04T04:20:14;97773.78;;;-5.82;91.33
8894;BME280;4483;48.622;9.230;2023-12-04T04:22:42;97800.97;;;-5.63;91.70
8894;BME280;4483;48.622;9.230;2023-12-04T04:25:09;97763.72;;;-5.85;91.55
8894;BME280;4483;48.622;9.230;2023-12-04T04:27:36;97798.53;;;-5.60;91.58
8894;BME280;4483;48.622;9.230;2023-12-04T04:30:03;97795.13;;;-5.62;91.89
8894;BME280;4483;48.622;9.230;2023-12-04T04:32:30;97796.84;;;-5.61;91.77
8894;BME280;4483;48.622;9.230;2023-12-04T04:34:57;97794.22;;;-5.65;92.26
8894;BME280;4483;48.622;9.230;2023-12-04T04:37:22;97800.22;;;-5.59;91.99
8894;BME280;4483;48.622;9.230;2023-12-04T04:39:50;97803.53;;;-5.60;92.05
8894;BME280;4483;48.622;9.230;2023-12-04T04:42:17;97802.75;;;-5.59;91.85
8894;BME280;4483;48.622;9.230;2023-12-04T04:44:43;97801.97;;;-5.55;92.44
8894;BME280;4483;48.622;9.230;2023-12-04T04:47:10;97795.31;;;-5.53;92.51
8894;BME280;4483;48.622;9.230;2023-12-04T04:49:36;97795.41;;;-5.50;92.13
8894;BME280;4483;48.622;9.230;2023-12-04T04:52:04;97791.28;;;-5.46;92.74
8894;BME280;4483;48.622;9.230;2023-12-04T04:54:31;97780.25;;;-5.53;92.25
8894;BME280;4483;48.622;9.230;2023-12-04T04:56:59;97791.34;;;-5.43;92.87
8894;BME280;4483;48.622;9.230;2023-12-04T04:59:25;97798.06;;;-5.42;92.72
8894;BME280;4483;48.622;9.230;2023-12-04T05:01:55;97789.75;;;-5.40;92.80
8894;BME280;4483;48.622;9.230;2023-12-04T05:04:21;97783.81;;;-5.43;92.75
8894;BME280;4483;48.622;9.230;2023-12-04T05:06:48;97762.06;;;-5.44;92.63
8894;BME280;4483;48.622;9.230;2023-12-04T05:09:15;97778.91;;;-5.39;92.42
8894;BME280;4483;48.622;9.230;2023-12-04T05:11:42;97773.69;;;-5.48;92.34
8894;BME280;4483;48.622;9.230;2023-12-04T05:14:10;97772.84;;;-5.48;93.00
8894;BME280;4483;48.622;9.230;2023-12-04T05:16:36;97771.13;;;-5.49;92.59
8894;BME280;4483;48.622;9.230;2023-12-04T05:19:03;97768.56;;;-5.52;93.38
8894;BME280;4483;48.622;9.230;2023-12-04T05:21:29;97759.31;;;-5.55;92.97
8894;BME280;4483;48.622;9.230;2023-12-04T05:23:56;97756.78;;;-5.55;93.43
8894;BME280;4483;48.622;9.230;2023-12-04T05:26:22;97745.03;;;-5.57;93.51
8894;BME280;4483;48.622;9.230;2023-12-04T05:28:49;97738.44;;;-5.54;93.31
8894;BME280;4483;48.622;9.230;2023-12-04T05:31:17;97740.97;;;-5.52;93.38
8894;BME280;4483;48.622;9.230;2023-12-04T05:33:44;97740.97;;;-5.51;93.69
8894;BME280;4483;48.622;9.230;2023-12-04T05:36:11;97736.84;;;-5.49;93.93
8894;BME280;4483;48.622;9.230;2023-12-04T05:38:37;97736.84;;;-5.49;93.56
8894;BME280;4483;48.622;9.230;2023-12-04T05:41:04;97736.06;;;-5.46;94.23
8894;BME280;4483;48.622;9.230;2023-12-04T05:43:31;97723.59;;;-5.42;93.94
8894;BME280;4483;48.622;9.230;2023-12-04T05:45:57;97725.31;;;-5.41;93.91
8894;BME280;4483;48.622;9.230;2023-12-04T05:48:25;97726.19;;;-5.39;94.03
8894;BME280;4483;48.622;9.230;2023-12-04T05:50:52;97722.03;;;-5.37;94.09
8894;BME280;4483;48.622;9.230;2023-12-04T05:53:19;97725.41;;;-5.35;94.02
8894;BME280;4483;48.622;9.230;2023-12-04T05:55:45;97711.13;;;-5.39;94.03
8894;BME280;4483;48.622;9.230;2023-12-04T05:58:12;97667.13;;;-5.63;94.00
8894;BME280;4483;48.622;9.230;2023-12-04T06:00:39;97712.78;;;-5.38;94.08
8894;BME280;4483;48.622;9.230;2023-12-04T06:03:06;97718.66;;;-5.39;94.11
8894;BME280;4483;48.622;9.230;2023-12-04T06:05:34;97723.69;;;-5.37;94.91
8894;BME280;4483;48.622;9.230;2023-12-04T06:08:00;97718.66;;;-5.39;93.79
8894;BME280;4483;48.622;9.230;2023-12-04T06:10:27;97717.91;;;-5.33;94.73
8894;BME280;4483;48.622;9.230;2023-12-04T06:12:54;97725.47;;;-5.32;94.65
8894;BME280;4483;48.622;9.230;2023-12-04T06:15:20;97716.28;;;-5.31;94.72
8894;BME280;4483;48.622;9.230;2023-12-04T06:17:47;97710.53;;;-5.26;95.08
8894;BME280;4483;48.622;9.230;2023-12-04T06:20:13;97717.28;;;-5.22;95.00
8894;BME280;4483;48.622;9.230;2023-12-04T06:22:41;97711.47;;;-5.21;95.01
8894;BME280;4483;48.622;9.230;2023-12-04T06:25:09;97698.78;;;-5.27;95.00
8894;BME280;4483;48.622;9.230;2023-12-04T06:27:36;97703.94;;;-5.19;95.12
8894;BME280;4483;48.622;9.230;2023-12-04T06:30:05;97693.03;;;-5.21;95.49
8894;BME280;4483;48.622;9.230;2023-12-04T06:32:32;97694.78;;;-5.17;94.80
8894;BME280;4483;48.622;9.230;2023-12-04T06:34:59;97697.41;;;-5.11;95.48
8894;BME280;4483;48.622;9.230;2023-12-04T06:37:26;97703.22;;;-5.12;95.02
8894;BME280;4483;48.622;9.230;2023-12-04T06:39:56;97688.97;;;-5.15;95.07
8894;BME280;4483;48.622;9.230;2023-12-04T06:42:26;97697.34;;;-5.13;95.58
8894;BME280;4483;48.622;9.230;2023-12-04T06:44:53;97686.47;;;-5.15;94.97
8894;BME280;4483;48.622;9.230;2023-12-04T06:47:22;97679.75;;;-5.14;95.74
8894;BME280;4483;48.622;9.230;2023-12-04T06:49:49;97681.44;;;-5.15;95.06
8894;BME280;4483;48.622;9.230;2023-12-04T06:52:15;97679.78;;;-5.13;95.19
8894;BME280;4483;48.622;9.230;2023-12-04T06:54:42;97687.38;;;-5.09;95.52
8894;BME280;4483;48.622;9.230;2023-12-04T06:57:10;97671.47;;;-5.08;96.06
8894;BME280;4483;48.622;9.230;2023-12-04T06:59:40;97668.19;;;-5.06;95.95
8894;BME280;4483;48.622;9.230;2023-12-04T07:02:06;97662.28;;;-5.09;95.36
8894;BME280;4483;48.622;9.230;2023-12-04T07:04:33;97677.38;;;-5.06;95.69
8894;BME280;4483;48.622;9.230;2023-12-04T07:06:59;97656.41;;;-5.08;95.53
8894;BME280;4483;48.622;9.230;2023-12-04T07:09:30;97672.50;;;-4.97;96.18
8894;BME280;4483;48.622;9.230;2023-12-04T07:11:56;97660.88;;;-4.92;95.73
8894;BME280;4483;48.622;9.230;2023-12-04T07:14:24;97661.78;;;-4.89;96.37
8894;BME280;4483;48.622;9.230;2023-12-04T07:16:51;97651.56;;;-4.98;97.39
8894;BME280;4483;48.622;9.230;2023-12-04T07:19:18;97658.28;;;-4.97;96.26
8894;BME280;4483;48.622;9.230;2023-12-04T07:21:45;97660.81;;;-4.95;96.01
8894;BME280;4483;48.622;9.230;2023-12-04T07:24:12;97656.63;;;-4.96;95.80
8894;BME280;4483;48.622;9.230;2023-12-04T07:26:38;97658.31;;;-4.95;96.60
8894;BME280;4483;48.622;9.230;2023-12-04T07:29:05;97653.34;;;-4.92;96.01
8894;BME280;4483;48.622;9.230;2023-12-04T07:31:34;97658.44;;;-4.88;97.17
8894;BME280;4483;48.622;9.230;2023-12-04T07:34:00;97645.13;;;-4.82;97.11
8894;BME280;4483;48.622;9.230;2023-12-04T07:36:27;97633.38;;;-4.83;96.15
8894;BME280;4483;48.622;9.230;2023-12-04T07:38:54;97650.34;;;-4.70;96.21
8894;BME280;4483;48.622;9.230;2023-12-04T07:41:20;97659.66;;;-4.65;96.74
8894;BME280;4483;48.622;9.230;2023-12-04T07:43:47;97658.03;;;-4.61;96.82
8894;BME280;4483;48.622;9.230;2023-12-04T07:46:14;97658.09;;;-4.58;96.34
8894;BME280;4483;48.622;9.230;2023-12-04T07:48:42;97649.72;;;-4.57;95.93
8894;BME280;4483;48.622;9.230;2023-12-04T07:51:09;97639.66;;;-4.56;96.25
8894;BME280;4483;48.622;9.230;2023-12-04T07:53:35;97632.94;;;-4.58;95.72
8894;BME280;4483;48.622;9.230;2023-12-04T07:56:03;97621.78;;;-4.75;96.95
8894;BME280;4483;48.622;9.230;2023-12-04T07:58:30;97642.00;;;-4.69;96.97
8894;BME280;4483;48.622;9.230;2023-12-04T08:00:57;97643.75;;;-4.65;96.07
8894;BME280;4483;48.622;9.230;2023-12-04T08:03:24;97633.63;;;-4.68;96.14
8894;BME280;4483;48.622;9.230;2023-12-04T08:05:52;97632.88;;;-4.61;96.37
8894;BME280;4483;48.622;9.230;2023-12-04T08:08:19;97638.00;;;-4.55;97.54
8894;BME280;4483;48.622;9.230;2023-12-04T08:10:47;97644.81;;;-4.48;96.85
8894;BME280;4483;48.622;9.230;2023-12-04T08:13:13;97635.72;;;-4.40;96.63
8894;BME280;4483;48.622;9.230;2023-12-04T08:15:40;97635.75;;;-4.37;96.87
8894;BME280;4483;48.622;9.230;2023-12-04T08:18:07;97652.63;;;-4.30;96.23
8894;BME280;4483;48.622;9.230;2023-12-04T08:20:34;97665.25;;;-4.27;96.58
8894;BME280;4483;48.622;9.230;2023-12-04T08:23:02;97658.63;;;-4.22;96.72
8894;BME280;4483;48.622;9.230;2023-12-04T08:25:29;97645.28;;;-4.17;97.44
8894;BME280;4483;48.622;9.230;2023-12-04T08:27:58;97652.03;;;-4.13;97.38
8894;BME280;4483;48.622;9.230;2023-12-04T08:30:24;97629.44;;;-4.10;97.00
8894;BME280;4483;48.622;9.230;2023-12-04T08:32:52;97621.03;;;-4.10;97.16
8894;BME280;4483;48.622;9.230;2023-12-04T08:35:18;97622.75;;;-4.07;98.87
8894;BME280;4483;48.622;9.230;2023-12-04T08:37:45;97601.59;;;-4.23;98.40
8894;BME280;4483;48.622;9.230;2023-12-04T08:40:13;97597.47;;;-4.20;96.68
8894;BME280;4483;48.622;9.230;2023-12-04T08:42:40;97612.69;;;-4.09;99.40
8894;BME280;4483;48.622;9.230;2023-12-04T08:45:09;97602.53;;;-4.15;97.46
8894;BME280;4483;48.622;9.230;2023-12-04T08:47:36;97627.78;;;-4.09;98.16
8894;BME280;4483;48.622;9.230;2023-12-04T08:50:03;97628.66;;;-4.04;98.06
8894;BME280;4483;48.622;9.230;2023-12-04T08:52:30;97594.31;;;-4.00;98.58
8894;BME280;4483;48.622;9.230;2023-12-04T08:54:56;97621.22;;;-3.98;97.26
8894;BME280;4483;48.622;9.230;2023-12-04T08:57:24;97596.00;;;-4.01;99.27
8894;BME280;4483;48.622;9.230;2023-12-04T08:59:51;97606.03;;;-4.04;99.99
8894;BME280;4483;48.622;9.230;2023-12-04T09:02:17;97609.41;;;-4.02;99.60
8894;BME280;4483;48.622;9.230;2023-12-04T09:04:44;97596.84;;;-3.99;98.83
8894;BME280;4483;48.622;9.230;2023-12-04T09:07:10;97591.91;;;-3.91;99.14
8894;BME280;4483;48.622;9.230;2023-12-04T09:09:37;97587.81;;;-3.83;98.24
8894;BME280;4483;48.622;9.230;2023-12-04T09:12:04;97590.47;;;-3.73;99.19
8894;BME280;4483;48.622;9.230;2023-12-04T09:14:34;97589.75;;;-3.60;98.51
8894;BME280;4483;48.622;9.230;2023-12-04T09:17:00;97590.72;;;-3.49;98.31
8894;BME280;4483;48.622;9.230;2023-12-04T09:19:28;97592.53;;;-3.36;98.27
8894;BME280;4483;48.622;9.230;2023-12-04T09:21:55;97588.38;;;-3.29;99.11
8894;BME280;4483;48.622;9.230;2023-12-04T09:24:22;97599.41;;;-3.17;99.05
8894;BME280;4483;48.622;9.230;2023-12-04T09:26:48;97598.66;;;-3.08;98.60
8894;BME280;4483;48.622;9.230;2023-12-04T09:29:15;97601.25;;;-2.97;98.32
8894;BME280;4483;48.622;9.230;2023-12-04T09:31:43;97603.84;;;-2.90;98.92
8894;BME280;4483;48.622;9.230;2023-12-04T09:34:10;97594.66;;;-2.82;98.86
8894;BME280;4483;48.622;9.230;2023-12-04T09:36:36;97598.09;;;-2.72;99.00
8894;BME280;4483;48.622;9.230;2023-12-04T09:39:03;97586.38;;;-2.66;98.67
8894;BME280;4483;48.622;9.230;2023-12-04T09:41:30;97599.91;;;-2.53;98.89
8894;BME280;4483;48.622;9.230;2023-12-04T09:43:58;97587.38;;;-2.44;99.28
8894;BME280;4483;48.622;9.230;2023-12-04T09:46:24;97595.84;;;-2.30;99.17
8894;BME280;4483;48.622;9.230;2023-12-04T09:48:54;97610.22;;;-2.17;98.20
8894;BME280;4483;48.622;9.230;2023-12-04T09:51:22;97599.31;;;-2.09;98.97
8894;BME280;4483;48.622;9.230;2023-12-04T09:53:51;97596.88;;;-1.98;98.87
8894;BME280;4483;48.622;9.230;2023-12-04T09:56:19;97591.00;;;-1.86;98.48
8894;BME280;4483;48.622;9.230;2023-12-04T09:58:52;97598.56;;;-1.85;98.06
8894;BME280;4483;48.622;9.230;2023-12-04T10:01:19;97591.91;;;-1.71;98.43
8894;BME280;4483;48.622;9.230;2023-12-04T10:03:46;97591.97;;;-1.54;99.26
8894;BME280;4483;48.622;9.230;2023-12-04T10:06:16;97612.22;;;-1.38;98.58
8894;BME280;4483;48.622;9.230;2023-12-04T10:08:43;97596.22;;;-1.26;98.98
8894;BME280;4483;48.622;9.230;2023-12-04T10:11:11;97618.97;;;-1.19;97.97
8894;BME280;4483;48.622;9.230;2023-12-04T10:13:38;97594.56;;;-1.12;97.64
8894;BME280;4483;48.622;9.230;2023-12-04T10:16:06;97581.91;;;-1.17;97.46
8894;BME280;4483;48.622;9.230;2023-12-04T10:18:42;97593.72;;;-1.11;98.09
8894;BME280;4483;48.622;9.230;2023-12-04T10:21:08;97576.88;;;-1.08;97.93
8894;BME280;4483;48.622;9.230;2023-12-04T10:23:42;97578.56;;;-1.07;98.79
8894;BME280;4483;48.622;9.230;2023-12-04T10:26:09;97573.50;;;-1.07;98.85
8894;BME280;4483;48.622;9.230;2023-12-04T10:28:58;97551.59;;;-1.02;99.03
8894;BME280;4483;48.622;9.230;2023-12-04T10:31:25;97548.22;;;-0.96;99.07
8894;BME280;4483;48.622;9.230;2023-12-04T10:33:52;97514.53;;;-1.07;98.97
8894;BME280;4483;48.622;9.230;2023-12-04T10:36:20;97533.06;;;-0.82;98.69
8894;BME280;4483;48.622;9.230;2023-12-04T10:38:57;97535.56;;;-0.72;99.10
8894;BME280;4483;48.622;9.230;2023-12-04T10:41:24;97522.03;;;-0.63;98.64
8894;BME280;4483;48.622;9.230;2023-12-04T10:43:51;97512.75;;;-0.55;98.50
8894;BME280;4483;48.622;9.230;2023-12-04T10:46:18;97517.78;;;-0.42;98.97
8894;BME280;4483;48.622;9.230;2023-12-04T10:48:47;97498.31;;;-0.25;98.67
8894;BME280;4483;48.622;9.230;2023-12-04T10:51:15;97524.41;;;-0.06;97.01
8894;BME280;4483;48.622;9.230;2023-12-04T10:53:43;97523.50;;;0.04;97.43
8894;BME280;4483;48.622;9.230;2023-12-04T10:56:19;97515.03;;;0.13;96.57
8894;BME280;4483;48.622;9.230;2023-12-04T10:58:48;97505.69;;;0.22;96.78
8894;BME280;4483;48.622;9.230;2023-12-04T11:01:18;97492.94;;;0.37;96.65
8894;BME280;4483;48.622;9.230;2023-12-04T11:03:48;97486.88;;;0.59;96.61
8894;BME280;4483;48.622;9.230;2023-12-04T11:06:16;97463.00;;;0.84;96.89
8894;BME280;4483;48.622;9.230;2023-12-04T11:08:47;97459.44;;;1.03;94.65
8894;BME280;4483;48.622;9.230;2023-12-04T11:11:21;97451.81;;;1.08;94.75
8894;BME280;4483;48.622;9.230;2023-12-04T11:13:54;97445.94;;;1.01;93.92
8894;BME280;4483;48.622;9.230;2023-12-04T11:16:28;97435.91;;;0.91;93.14
8894;BME280;4483;48.622;9.230;2023-12-04T11:19:00;97440.22;;;0.81;93.72
8894;BME280;4483;48.622;9.230;2023-12-04T11:21:28;97432.69;;;0.72;93.26
8894;BME280;4483;48.622;9.230;2023-12-04T11:23:55;97443.69;;;0.68;95.03
8894;BME280;4483;48.622;9.230;2023-12-04T11:26:24;97427.72;;;0.57;94.67
8894;BME280;4483;48.622;9.230;2023-12-04T11:28:52;97431.09;;;0.59;94.18
8894;BME280;4483;48.622;9.230;2023-12-04T11:31:19;97434.53;;;0.52;95.68
8894;BME280;4483;48.622;9.230;2023-12-04T11:33:46;97426.88;;;0.57;95.42
8894;BME280;4483;48.622;9.230;2023-12-04T11:36:13;97432.78;;;0.59;96.17
8894;BME280;4483;48.622;9.230;2023-12-04T11:38:44;97425.16;;;0.63;96.53
8894;BME280;4483;48.622;9.230;2023-12-04T11:41:15;97416.66;;;0.69;96.50
8894;BME280;4483;48.622;9.230;2023-12-04T11:43:45;97408.94;;;0.84;96.01
8894;BME280;4483;48.622;9.230;2023-12-04T11:46:13;97412.19;;;0.96;96.63
8894;BME280;4483;48.622;9.230;2023-12-04T11:48:40;97394.41;;;0.98;95.93
8894;BME280;4483;48.622;9.230;2023-12-04T11:51:07;97368.28;;;0.91;96.50
8894;BME280;4483;48.622;9.230;2023-12-04T11:53:37;97374.16;;;0.93;96.45
8894;BME280;4483;48.622;9.230;2023-12-04T11:56:09;97345.53;;;0.84;95.99
8894;BME280;4483;48.622;9.230;2023-12-04T11:58:43;97334.69;;;0.71;95.90
8894;BME280;4483;48.622;9.230;2023-12-04T12:01:10;97347.38;;;0.68;96.81
8894;BME280;4483;48.622;9.230;2023-12-04T12:03:36;97331.38;;;0.62;96.88
8894;BME280;4483;48.622;9.230;2023-12-04T12:06:04;97342.34;;;0.65;96.34
8894;BME280;4483;48.622;9.230;2023-12-04T12:08:30;97321.22;;;0.63;95.74
8894;BME280;4483;48.622;9.230;2023-12-04T12:10:57;97331.28;;;0.71;95.74
8894;BME280;4483;48.622;9.230;2023-12-04T12:13:24;97344.63;;;0.89;96.41
8894;BME280;4483;48.622;9.230;2023-12-04T12:15:53;97338.50;;;1.07;95.99
8894;BME280;4483;48.622;9.230;2023-12-04T12:18:21;97342.56;;;1.22;95.27
8894;BME280;4483;48.622;9.230;2023-12-04T12:20:49;97335.59;;;1.36;94.23
8894;BME280;4483;48.622;9.230;2023-12-04T12:23:16;97337.09;;;1.52;94.68
8894;BME280;4483;48.622;9.230;2023-12-04T12:25:42;97321.78;;;1.58;93.87
8894;BME280;4483;48.622;9.230;2023-12-04T12:28:10;97312.50;;;1.57;93.02
8894;BME280;4483;48.622;9.230;2023-12-04T12:30:37;97309.88;;;1.61;93.50
8894;BME280;4483;48.622;9.230;2023-12-04T12:33:05;97303.47;;;1.35;92.20
8894;BME280;4483;48.622;9.230;2023-12-04T12:35:31;97309.50;;;1.28;93.29
8894;BME280;4483;48.622;9.230;2023-12-04T12:37:58;97299.50;;;1.17;93.03
8894;BME280;4483;48.622;9.230;2023-12-04T12:40:27;97304.69;;;1.07;92.60
8894;BME280;4483;48.622;9.230;2023-12-04T12:43:03;97293.06;;;0.89;93.12
8894;BME280;4483;48.622;9.230;2023-12-04T12:45:38;97296.50;;;0.83;93.93
8894;BME280;4483;48.622;9.230;2023-12-04T12:48:10;97291.56;;;0.70;92.82
8894;BME280;4483;48.622;9.230;2023-12-04T12:50:36;97291.66;;;0.62;93.51
8894;BME280;4483;48.622;9.230;2023-12-04T12:53:03;97252.19;;;0.42;94.87
8894;BME280;4483;48.622;9.230;2023-12-04T12:55:30;97267.34;;;0.45;95.29
8894;BME280;4483;48.622;9.230;2023-12-04T12:57:57;97275.75;;;0.48;95.38
8894;BME280;4483;48.622;9.230;2023-12-04T13:00:23;97278.25;;;0.53;95.20
8894;BME280;4483;48.622;9.230;2023-12-04T13:02:52;97271.44;;;0.58;95.43
8894;BME280;4483;48.622;9.230;2023-12-04T13:05:20;97268.84;;;0.62;95.01
8894;BME280;4483;48.622;9.230;2023-12-04T13:07:47;97265.47;;;0.63;95.94
8894;BME280;4483;48.622;9.230;2023-12-04T13:10:14;97255.38;;;0.60;96.15
8894;BME280;4483;48.622;9.230;2023-12-04T13:12:40;97244.41;;;0.58;96.02
8894;BME280;4483;48.622;9.230;2023-12-04T13:15:07;97261.31;;;0.56;95.54
8894;BME280;4483;48.622;9.230;2023-12-04T13:17:35;97257.94;;;0.56;94.90
8894;BME280;4483;48.622;9.230;2023-12-04T13:20:02;97257.13;;;0.52;95.24
8894;BME280;4483;48.622;9.230;2023-12-04T13:22:31;97269.81;;;0.52;95.62
8894;BME280;4483;48.622;9.230;2023-12-04T13:24:59;97268.13;;;0.50;95.59
8894;BME280;4483;48.622;9.230;2023-12-04T13:27:27;97252.94;;;0.51;95.90